createdAt,value
2023-02-17T00:01:09.296Z,22.67
2023-02-17T00:03:35.706Z,22.02
2023-02-17T00:06:05.665Z,21.05
2023-02-17T00:08:32.169Z,22.13
2023-02-17T00:10:58.751Z,22.02
2023-02-17T00:13:25.379Z,23.25
2023-02-17T00:15:52.031Z,23.90
2023-02-17T00:18:19.922Z,24.65
2023-02-17T00:20:46.269Z,24.25
2023-02-17T00:23:12.627Z,24.33
2023-02-17T00:25:39.436Z,24.20
2023-02-17T00:28:06.021Z,23.15
2023-02-17T00:30:33.667Z,24.02
2023-02-17T00:33:00.718Z,25.55
2023-02-17T00:35:27.100Z,26.73
2023-02-17T00:37:53.443Z,24.85
2023-02-17T00:40:19.904Z,25.98
2023-02-17T00:42:46.302Z,25.77
2023-02-17T00:45:12.628Z,24.30
2023-02-17T00:47:39.004Z,22.55
2023-02-17T00:50:06.404Z,26.45
2023-02-17T00:52:32.731Z,27.67
2023-02-17T00:54:59.056Z,26.52
2023-02-17T00:57:26.347Z,28.23
2023-02-17T00:59:52.752Z,26.75
2023-02-17T01:02:19.055Z,27.65
2023-02-17T01:04:45.389Z,24.73
2023-02-17T01:07:14.701Z,25.00
2023-02-17T01:09:41.042Z,26.58
2023-02-17T01:12:07.451Z,26.45
2023-02-17T01:14:33.841Z,25.70
2023-02-17T01:17:00.137Z,18.30
2023-02-17T01:19:28.188Z,25.17
2023-02-17T01:21:54.564Z,22.92
2023-02-17T01:24:20.914Z,23.10
2023-02-17T01:26:47.309Z,24.42
2023-02-17T01:29:13.674Z,22.52
2023-02-17T01:31:40.653Z,22.90
2023-02-17T01:34:11.194Z,24.13
2023-02-17T01:36:37.576Z,24.75
2023-02-17T01:39:04.016Z,24.20
2023-02-17T01:41:30.378Z,26.02
2023-02-17T01:44:04.610Z,24.92
2023-02-17T01:46:37.710Z,22.98
2023-02-17T01:49:08.772Z,25.67
2023-02-17T01:51:36.263Z,25.25
2023-02-17T01:54:05.793Z,27.38
2023-02-17T01:56:33.678Z,27.58
2023-02-17T01:59:02.556Z,26.27
2023-02-17T02:01:29.978Z,25.25
2023-02-17T02:03:56.407Z,28.13
2023-02-17T02:06:25.298Z,27.02
2023-02-17T02:08:56.584Z,27.77
2023-02-17T02:11:22.969Z,25.60
2023-02-17T02:13:50.205Z,26.77
2023-02-17T02:16:42.806Z,25.10
2023-02-17T02:19:21.210Z,27.33
2023-02-17T02:22:04.346Z,25.55
2023-02-17T02:24:37.790Z,24.27
2023-02-17T02:27:04.090Z,23.30
2023-02-17T02:29:48.469Z,23.50
2023-02-17T02:32:34.866Z,25.17
2023-02-17T02:35:06.658Z,24.48
2023-02-17T02:37:36.127Z,23.10
2023-02-17T02:40:05.939Z,24.08
2023-02-17T02:42:34.968Z,22.73
2023-02-17T02:45:01.420Z,22.13
2023-02-17T02:47:38.660Z,23.08
2023-02-17T02:50:05.674Z,23.23
2023-02-17T02:52:47.905Z,22.80
2023-02-17T02:55:34.809Z,21.63
2023-02-17T02:58:10.555Z,20.73
2023-02-17T03:00:45.836Z,20.42
2023-02-17T03:03:25.994Z,18.45
2023-02-17T03:05:59.146Z,19.95
2023-02-17T03:08:35.787Z,18.98
2023-02-17T03:11:02.796Z,19.75
2023-02-17T03:13:37.906Z,17.40
2023-02-17T03:16:06.024Z,19.38
2023-02-17T03:18:32.827Z,18.98
2023-02-17T03:21:03.436Z,20.25
2023-02-17T03:23:30.327Z,17.27
2023-02-17T03:25:56.729Z,18.00
2023-02-17T03:28:23.123Z,17.38
2023-02-17T03:30:50.942Z,17.42
2023-02-17T03:33:17.325Z,18.42
2023-02-17T03:35:43.660Z,17.50
2023-02-17T03:38:10.202Z,19.58
2023-02-17T03:40:36.867Z,18.48
2023-02-17T03:43:03.185Z,16.25
2023-02-17T03:45:29.615Z,18.30
2023-02-17T03:47:55.997Z,20.38
2023-02-17T03:50:22.383Z,20.08
2023-02-17T03:52:48.756Z,20.88
2023-02-17T03:55:15.196Z,24.13
2023-02-17T03:57:41.565Z,21.20
2023-02-17T04:00:09.347Z,23.15
2023-02-17T04:02:43.988Z,25.15
2023-02-17T04:05:10.819Z,26.67
2023-02-17T04:07:37.232Z,27.50
2023-02-17T04:10:06.266Z,30.58
2023-02-17T04:12:33.568Z,27.98
2023-02-17T04:14:59.859Z,30.48
2023-02-17T04:17:26.208Z,27.85
2023-02-17T04:19:52.523Z,27.35
2023-02-17T04:22:18.856Z,28.63
2023-02-17T04:24:45.173Z,23.80
2023-02-17T04:27:11.752Z,30.58
2023-02-17T04:29:38.301Z,29.02
2023-02-17T04:32:04.844Z,30.02
2023-02-17T04:34:31.352Z,26.35
2023-02-17T04:36:57.677Z,27.95
2023-02-17T04:39:24.078Z,29.52
2023-02-17T04:41:50.537Z,28.65
2023-02-17T04:44:16.868Z,26.20
2023-02-17T04:46:43.199Z,27.27
2023-02-17T04:49:09.535Z,26.63
2023-02-17T04:51:35.946Z,25.23
2023-02-17T04:54:02.327Z,24.20
2023-02-17T04:56:28.680Z,22.45
2023-02-17T04:58:55.054Z,23.83
2023-02-17T05:01:21.434Z,20.83
2023-02-17T05:03:47.847Z,23.90
2023-02-17T05:06:14.189Z,23.45
2023-02-17T05:08:40.598Z,23.25
2023-02-17T05:11:06.943Z,22.05
2023-02-17T05:13:33.311Z,25.20
2023-02-17T05:16:01.782Z,25.15
2023-02-17T05:18:28.204Z,22.20
2023-02-17T05:20:54.570Z,23.88
2023-02-17T05:23:20.905Z,23.15
2023-02-17T05:25:47.222Z,24.80
2023-02-17T05:28:13.563Z,21.52
2023-02-17T05:30:39.954Z,24.42
2023-02-17T05:33:06.360Z,18.38
2023-02-17T05:35:35.060Z,25.30
2023-02-17T05:38:01.571Z,28.45
2023-02-17T05:40:27.880Z,27.02
2023-02-17T05:42:54.259Z,27.92
2023-02-17T05:45:20.656Z,27.30
2023-02-17T05:47:46.992Z,29.00
2023-02-17T05:50:13.493Z,26.90
2023-02-17T05:52:39.909Z,27.08
2023-02-17T05:55:06.428Z,28.25
2023-02-17T05:57:32.809Z,28.85
2023-02-17T05:59:59.236Z,27.75
2023-02-17T06:02:25.725Z,29.58
2023-02-17T06:04:52.152Z,27.63
2023-02-17T06:07:18.672Z,30.55
2023-02-17T06:09:47.162Z,32.08
2023-02-17T06:12:13.673Z,31.95
2023-02-17T06:14:39.987Z,31.60
2023-02-17T06:17:06.407Z,32.85
2023-02-17T06:19:32.768Z,26.60
2023-02-17T06:21:59.144Z,31.05
2023-02-17T06:24:25.515Z,30.55
2023-02-17T06:26:51.876Z,30.92
2023-02-17T06:29:18.245Z,30.55
2023-02-17T06:31:44.615Z,30.52
2023-02-17T06:34:11.797Z,30.42
2023-02-17T06:36:38.252Z,31.42
2023-02-17T06:39:04.655Z,31.10
2023-02-17T06:41:31.047Z,31.38
2023-02-17T06:43:57.450Z,29.70
2023-02-17T06:46:23.813Z,27.73
2023-02-17T06:48:50.137Z,29.58
2023-02-17T06:51:16.429Z,27.30
2023-02-17T06:53:44.952Z,24.52
2023-02-17T06:56:11.257Z,26.25
2023-02-17T06:58:38.034Z,29.42
2023-02-17T07:01:04.723Z,26.48
2023-02-17T07:03:31.992Z,23.98
2023-02-17T07:05:58.933Z,25.52
2023-02-17T07:08:25.316Z,27.98
2023-02-17T07:10:51.761Z,24.95
2023-02-17T07:13:18.087Z,27.35
2023-02-17T07:15:44.479Z,22.02
2023-02-17T07:18:10.829Z,25.33
2023-02-17T07:20:39.163Z,24.02
2023-02-17T07:23:05.837Z,22.75
2023-02-17T07:25:32.206Z,18.15
2023-02-17T07:27:59.920Z,22.73
2023-02-17T07:30:26.442Z,23.35
2023-02-17T07:32:52.836Z,21.67
2023-02-17T07:35:20.193Z,18.52
2023-02-17T07:37:46.603Z,19.33
2023-02-17T07:40:13.109Z,16.67
2023-02-17T07:42:39.500Z,19.25
2023-02-17T07:45:07.136Z,19.52
2023-02-17T07:47:33.502Z,18.48
2023-02-17T07:49:59.903Z,17.10
2023-02-17T07:52:27.423Z,17.25
2023-02-17T07:54:53.758Z,15.77
2023-02-17T07:57:20.088Z,16.67
2023-02-17T07:59:47.351Z,16.50
2023-02-17T08:02:13.761Z,16.83
2023-02-17T08:04:40.206Z,16.45
2023-02-17T08:07:06.569Z,15.80
2023-02-17T08:09:51.752Z,16.25
2023-02-17T08:12:37.526Z,14.25
2023-02-17T08:15:06.889Z,14.25
2023-02-17T08:17:33.279Z,14.13
2023-02-17T08:20:05.882Z,16.15
2023-02-17T08:22:34.782Z,14.45
2023-02-17T08:25:01.121Z,14.38
2023-02-17T08:27:27.509Z,14.40
2023-02-17T08:29:55.675Z,11.52
2023-02-17T08:32:22.724Z,12.15
2023-02-17T08:34:49.130Z,15.20
2023-02-17T08:37:15.568Z,13.65
2023-02-17T08:39:41.960Z,14.07
2023-02-17T08:42:08.362Z,12.02
2023-02-17T08:44:35.922Z,13.57
2023-02-17T08:47:02.455Z,15.40
2023-02-17T08:49:31.884Z,12.48
2023-02-17T08:51:58.609Z,13.25
2023-02-17T08:54:25.137Z,12.50
2023-02-17T08:56:51.544Z,13.73
2023-02-17T08:59:17.954Z,11.18
2023-02-17T09:01:44.420Z,12.48
2023-02-17T09:04:12.799Z,14.15
2023-02-17T09:06:41.000Z,14.32
2023-02-17T09:09:08.908Z,14.23
2023-02-17T09:11:35.458Z,14.18
2023-02-17T09:14:02.540Z,14.13
2023-02-17T09:16:30.309Z,14.65
2023-02-17T09:18:56.794Z,14.75
2023-02-17T09:21:23.556Z,13.98
2023-02-17T09:23:50.233Z,12.20
2023-02-17T09:26:17.451Z,14.32
2023-02-17T09:28:44.350Z,15.15
2023-02-17T09:31:23.946Z,12.80
2023-02-17T09:33:50.468Z,13.65
2023-02-17T09:36:19.018Z,13.77
2023-02-17T09:38:45.736Z,12.35
2023-02-17T09:41:22.438Z,14.25
2023-02-17T09:43:49.311Z,13.32
2023-02-17T09:46:21.470Z,12.85
2023-02-17T09:48:49.535Z,12.50
2023-02-17T09:51:34.747Z,11.82
2023-02-17T09:54:05.935Z,12.57
2023-02-17T09:56:33.960Z,10.93
2023-02-17T09:59:04.608Z,10.40
2023-02-17T10:01:32.626Z,9.90
2023-02-17T10:04:05.264Z,9.65
2023-02-17T10:09:00.999Z,9.07
2023-02-17T10:11:27.376Z,9.65
2023-02-17T10:13:55.731Z,9.02
2023-02-17T10:16:24.721Z,9.20
2023-02-17T10:18:57.461Z,6.45
2023-02-17T10:21:32.562Z,9.27
2023-02-17T10:23:58.916Z,8.23
2023-02-17T10:26:28.131Z,8.95
2023-02-17T10:28:57.399Z,7.32
2023-02-17T10:31:23.812Z,8.57
2023-02-17T10:33:50.209Z,8.75
2023-02-17T10:36:30.723Z,8.00
2023-02-17T10:39:02.374Z,8.60
2023-02-17T10:41:35.714Z,7.80
2023-02-17T10:44:05.875Z,8.30
2023-02-17T10:46:32.514Z,8.75
2023-02-17T10:48:59.866Z,7.53
2023-02-17T10:51:27.549Z,6.90
2023-02-17T10:54:17.034Z,8.98
2023-02-17T10:56:48.790Z,9.02
2023-02-17T10:59:23.580Z,9.63
2023-02-17T11:01:50.651Z,9.30
2023-02-17T11:04:17.025Z,8.82
2023-02-17T11:06:44.392Z,9.55
2023-02-17T11:09:21.562Z,10.05
2023-02-17T11:11:50.789Z,9.38
2023-02-17T11:14:19.284Z,8.85
2023-02-17T11:16:47.549Z,8.85
2023-02-17T11:19:30.819Z,8.80
2023-02-17T11:21:58.943Z,8.52
2023-02-17T11:24:26.292Z,8.60
2023-02-17T11:27:11.538Z,8.98
2023-02-17T11:29:37.948Z,9.07
2023-02-17T11:32:10.671Z,7.25
2023-02-17T11:34:39.912Z,9.25
2023-02-17T11:37:09.009Z,9.90
2023-02-17T11:39:39.450Z,9.70
2023-02-17T11:42:24.391Z,9.88
2023-02-17T11:44:52.515Z,10.15
2023-02-17T11:47:27.839Z,9.27
2023-02-17T11:50:00.340Z,10.10
2023-02-17T11:52:46.774Z,10.30
2023-02-17T11:55:21.315Z,7.20
2023-02-17T11:57:49.167Z,10.45
2023-02-17T12:00:18.730Z,8.07
2023-02-17T12:03:06.642Z,8.63
2023-02-17T12:05:51.522Z,8.02
2023-02-17T12:08:21.047Z,7.88
2023-02-17T12:11:06.131Z,9.88
2023-02-17T12:13:44.516Z,8.25
2023-02-17T12:16:42.472Z,8.40
2023-02-17T12:19:14.707Z,8.00
2023-02-17T12:21:51.253Z,9.68
2023-02-17T12:24:20.345Z,8.32
2023-02-17T12:26:48.288Z,7.47
2023-02-17T12:29:27.243Z,8.75
2023-02-17T12:31:59.748Z,6.72
2023-02-17T12:36:55.411Z,9.15
2023-02-17T12:39:28.711Z,8.13
2023-02-17T12:41:57.426Z,6.88
2023-02-17T12:44:28.075Z,8.57
2023-02-17T12:46:57.411Z,7.25
2023-02-17T12:49:35.822Z,6.82
2023-02-17T12:52:18.571Z,7.10
2023-02-17T12:54:48.008Z,5.60
2023-02-17T12:57:21.085Z,6.30
2023-02-17T12:59:50.259Z,6.15
2023-02-17T13:02:22.435Z,6.47
2023-02-17T13:04:53.392Z,6.85
2023-02-17T13:07:38.277Z,5.30
2023-02-17T13:10:05.438Z,6.13
2023-02-17T13:12:33.176Z,6.32
2023-02-17T13:15:19.872Z,5.25
2023-02-17T13:17:54.292Z,5.78
2023-02-17T13:20:20.863Z,5.05
2023-02-17T13:22:51.025Z,4.90
2023-02-17T13:25:31.812Z,5.13
2023-02-17T13:27:59.482Z,4.85
2023-02-17T13:30:29.262Z,4.20
2023-02-17T13:33:06.970Z,3.78
2023-02-17T13:35:34.835Z,4.43
2023-02-17T13:38:01.524Z,3.67
2023-02-17T13:40:30.789Z,4.40
2023-02-17T13:42:57.457Z,4.30
2023-02-17T13:45:28.626Z,3.58
2023-02-17T13:47:56.739Z,4.35
2023-02-17T13:50:28.168Z,3.90
2023-02-17T13:52:55.482Z,4.22
2023-02-17T13:55:23.844Z,3.95
2023-02-17T13:57:54.578Z,3.92
2023-02-17T14:00:21.330Z,3.38
2023-02-17T14:02:49.475Z,3.13
2023-02-17T14:05:24.580Z,4.65
2023-02-17T14:07:52.868Z,3.53
2023-02-17T14:10:21.737Z,4.50
2023-02-17T14:12:49.235Z,3.92
2023-02-17T14:15:17.065Z,4.45
2023-02-17T14:17:43.396Z,4.05
2023-02-17T14:20:24.253Z,3.67
2023-02-17T14:23:04.305Z,4.75
2023-02-17T14:25:31.870Z,4.10
2023-02-17T14:27:59.519Z,3.85
2023-02-17T14:30:31.988Z,3.33
2023-02-17T14:35:24.942Z,4.25
2023-02-17T14:37:51.345Z,4.35
2023-02-17T14:40:19.423Z,4.90
2023-02-17T14:42:46.133Z,4.22
2023-02-17T14:45:12.706Z,4.60
2023-02-17T14:47:39.551Z,3.40
2023-02-17T14:50:09.087Z,4.20
2023-02-17T14:52:39.321Z,4.57
2023-02-17T14:55:10.773Z,4.43
2023-02-17T14:57:37.120Z,4.53
2023-02-17T15:00:03.940Z,5.13
2023-02-17T15:02:30.845Z,4.03
2023-02-17T15:04:57.185Z,3.92
2023-02-17T15:07:23.705Z,4.25
2023-02-17T15:09:50.198Z,4.45
2023-02-17T15:12:18.280Z,3.78
2023-02-17T15:14:46.973Z,4.53
2023-02-17T15:17:13.588Z,4.18
2023-02-17T15:19:40.333Z,4.03
2023-02-17T15:22:06.895Z,4.38
2023-02-17T15:24:34.420Z,4.70
2023-02-17T15:27:01.590Z,5.55
2023-02-17T15:29:28.074Z,5.45
2023-02-17T15:31:55.300Z,4.72
2023-02-17T15:34:22.961Z,4.90
2023-02-17T15:36:49.399Z,4.45
2023-02-17T15:39:19.143Z,8.95
2023-02-17T15:41:47.032Z,4.90
2023-02-17T15:44:21.245Z,5.18
2023-02-17T15:46:49.619Z,4.93
2023-02-17T15:49:15.940Z,4.35
2023-02-17T15:51:42.271Z,4.63
2023-02-17T15:54:09.872Z,5.63
2023-02-17T15:56:45.190Z,5.07
2023-02-17T15:59:19.196Z,4.65
2023-02-17T16:01:45.563Z,4.22
2023-02-17T16:04:12.628Z,4.95
2023-02-17T16:06:39.298Z,5.07
2023-02-17T16:09:05.937Z,4.55
2023-02-17T16:11:32.679Z,4.63
2023-02-17T16:14:00.473Z,3.97
2023-02-17T16:16:34.329Z,4.72
2023-02-17T16:19:00.828Z,5.20
2023-02-17T16:21:27.401Z,5.22
2023-02-17T16:23:58.912Z,5.07
2023-02-17T16:26:51.782Z,4.43
2023-02-17T16:29:19.691Z,5.40
2023-02-17T16:31:46.293Z,3.97
2023-02-17T16:34:22.867Z,4.45
2023-02-17T16:36:50.321Z,4.43
2023-02-17T16:39:18.045Z,4.43
2023-02-17T16:41:44.541Z,5.22
2023-02-17T16:44:14.959Z,4.95
2023-02-17T16:46:45.612Z,5.35
2023-02-17T16:49:17.798Z,4.65
2023-02-17T16:51:44.232Z,5.20
2023-02-17T16:54:11.661Z,5.82
2023-02-17T16:56:41.573Z,4.25
2023-02-17T16:59:12.687Z,5.13
2023-02-17T17:01:39.039Z,5.60
2023-02-17T17:04:07.007Z,4.30
2023-02-17T17:06:33.503Z,5.20
2023-02-17T17:08:59.815Z,4.50
2023-02-17T17:11:29.097Z,5.50
2023-02-17T17:13:55.489Z,6.25
2023-02-17T17:16:24.529Z,5.30
2023-02-17T17:18:52.091Z,4.60
2023-02-17T17:21:19.159Z,5.25
2023-02-17T17:23:50.593Z,5.75
2023-02-17T17:26:19.764Z,4.75
2023-02-17T17:28:50.124Z,4.85
2023-02-17T17:31:18.689Z,6.43
2023-02-17T17:33:45.130Z,5.70
2023-02-17T17:36:20.689Z,5.25
2023-02-17T17:38:47.049Z,5.95
2023-02-17T17:41:14.002Z,5.45
2023-02-17T17:43:40.562Z,5.03
2023-02-17T17:46:13.560Z,5.88
2023-02-17T17:48:40.455Z,5.45
2023-02-17T17:51:06.977Z,6.43
2023-02-17T17:53:33.392Z,5.50
2023-02-17T17:55:59.838Z,7.13
2023-02-17T17:58:26.364Z,8.25
2023-02-17T18:00:54.479Z,8.63
2023-02-17T18:03:20.809Z,7.90
2023-02-17T18:05:47.629Z,8.60
2023-02-17T18:08:14.229Z,8.30
2023-02-17T18:10:40.871Z,9.40
2023-02-17T18:13:08.500Z,7.95
2023-02-17T18:15:34.902Z,8.18
2023-02-17T18:18:01.326Z,7.85
2023-02-17T18:20:27.698Z,7.75
2023-02-17T18:22:54.084Z,7.65
2023-02-17T18:25:20.579Z,6.90
2023-02-17T18:27:47.142Z,6.53
2023-02-17T18:30:15.279Z,5.85
2023-02-17T18:32:43.291Z,5.20
2023-02-17T18:35:10.896Z,6.20
2023-02-17T18:37:37.331Z,7.72
2023-02-17T18:40:04.075Z,6.80
2023-02-17T18:42:30.524Z,7.00
2023-02-17T18:44:56.893Z,7.28
2023-02-17T18:47:23.835Z,6.25
2023-02-17T18:49:50.270Z,6.15
2023-02-17T18:52:16.624Z,6.25
2023-02-17T18:54:44.012Z,6.22
2023-02-17T18:57:11.208Z,7.82
2023-02-17T18:59:37.692Z,8.35
2023-02-17T19:02:07.820Z,7.28
2023-02-17T19:04:35.106Z,6.35
2023-02-17T19:07:03.488Z,6.53
2023-02-17T19:09:42.159Z,7.15
2023-02-17T19:12:13.303Z,6.93
2023-02-17T19:14:40.459Z,5.88
2023-02-17T19:17:07.414Z,7.80
2023-02-17T19:19:36.042Z,7.43
2023-02-17T19:22:10.765Z,6.18
2023-02-17T19:24:38.958Z,6.80
2023-02-17T19:27:05.665Z,6.88
2023-02-17T19:29:32.148Z,6.35
2023-02-17T19:31:58.912Z,7.75
2023-02-17T19:34:25.760Z,7.88
2023-02-17T19:36:53.731Z,7.60
2023-02-17T19:39:20.473Z,6.70
2023-02-17T19:41:46.990Z,6.90
2023-02-17T19:44:13.482Z,6.60
2023-02-17T19:46:40.226Z,6.10
2023-02-17T19:49:06.965Z,7.13
2023-02-17T19:51:33.954Z,9.15
2023-02-17T19:54:01.062Z,7.95
2023-02-17T19:56:29.379Z,8.43
2023-02-17T19:58:57.207Z,7.25
2023-02-17T20:01:28.088Z,7.63
2023-02-17T20:03:55.241Z,8.05
2023-02-17T20:06:24.619Z,8.95
2023-02-17T20:08:55.576Z,9.68
2023-02-17T20:11:21.972Z,9.30
2023-02-17T20:13:48.341Z,7.45
2023-02-17T20:16:15.452Z,9.23
2023-02-17T20:18:43.299Z,8.00
2023-02-17T20:21:10.898Z,8.73
2023-02-17T20:23:37.480Z,8.73
2023-02-17T20:26:08.288Z,9.13
2023-02-17T20:28:34.953Z,8.80
2023-02-17T20:31:01.816Z,9.23
2023-02-17T20:33:28.336Z,8.63
2023-02-17T20:35:54.758Z,8.55
2023-02-17T20:38:21.182Z,8.77
2023-02-17T20:40:48.324Z,10.07
2023-02-17T20:43:15.244Z,13.20
2023-02-17T20:45:42.512Z,11.57
2023-02-17T20:48:12.187Z,9.65
2023-02-17T20:50:38.704Z,9.45
2023-02-17T20:53:05.116Z,9.75
2023-02-17T20:55:31.520Z,9.65
2023-02-17T20:57:57.918Z,9.77
2023-02-17T21:00:25.366Z,9.52
2023-02-17T21:02:54.689Z,10.30
2023-02-17T21:05:22.527Z,10.07
2023-02-17T21:07:48.887Z,9.57
2023-02-17T21:10:16.606Z,10.07
2023-02-17T21:12:42.999Z,10.40
2023-02-17T21:15:09.693Z,9.32
2023-02-17T21:17:36.479Z,9.18
2023-02-17T21:20:03.760Z,10.35
2023-02-17T21:22:30.165Z,11.13
2023-02-17T21:24:56.586Z,10.30
2023-02-17T21:27:23.023Z,10.10
2023-02-17T21:29:49.387Z,10.70
2023-02-17T21:32:16.113Z,11.43
2023-02-17T21:34:42.568Z,9.93
2023-02-17T21:37:09.106Z,9.80
2023-02-17T21:39:35.908Z,10.18
2023-02-17T21:42:02.347Z,10.23
2023-02-17T21:44:47.145Z,11.05
2023-02-17T21:47:14.011Z,9.52
2023-02-17T21:49:40.398Z,11.05
2023-02-17T21:52:07.193Z,11.65
2023-02-17T21:54:34.463Z,10.32
2023-02-17T21:57:02.790Z,16.15
2023-02-17T21:59:30.708Z,11.88
2023-02-17T22:01:57.048Z,12.77
2023-02-17T22:04:25.579Z,11.32
2023-02-17T22:06:51.965Z,13.13
2023-02-17T22:09:20.589Z,12.43
2023-02-17T22:11:47.085Z,11.70
2023-02-17T22:14:17.180Z,13.32
2023-02-17T22:16:44.425Z,13.32
2023-02-17T22:19:15.975Z,12.88
2023-02-17T22:21:42.887Z,13.75
2023-02-17T22:24:10.836Z,12.10
2023-02-17T22:26:37.608Z,14.18
2023-02-17T22:29:04.462Z,13.82
2023-02-17T22:31:32.350Z,14.43
2023-02-17T22:34:00.093Z,13.57
2023-02-17T22:36:27.453Z,14.55
2023-02-17T22:38:54.098Z,13.80
2023-02-17T22:41:22.056Z,13.75
2023-02-17T22:43:48.673Z,15.10
2023-02-17T22:46:16.399Z,13.88
2023-02-17T22:48:43.695Z,14.85
2023-02-17T22:51:12.349Z,14.32
2023-02-17T22:53:39.019Z,16.02
2023-02-17T22:56:06.579Z,18.15
2023-02-17T22:58:33.695Z,17.75
2023-02-17T23:01:07.708Z,15.98
2023-02-17T23:03:34.325Z,17.88
2023-02-17T23:06:06.636Z,17.98
2023-02-17T23:08:33.379Z,18.55
2023-02-17T23:11:03.412Z,19.92
2023-02-17T23:13:29.762Z,20.17
2023-02-17T23:15:56.063Z,20.50
2023-02-17T23:18:28.245Z,20.13
2023-02-17T23:20:54.969Z,20.20
2023-02-17T23:23:21.619Z,20.98
2023-02-17T23:25:56.744Z,21.45
2023-02-17T23:28:24.573Z,21.42
2023-02-17T23:30:51.131Z,21.35
2023-02-17T23:33:18.938Z,21.80
2023-02-17T23:35:45.918Z,20.08
2023-02-17T23:38:12.739Z,16.33
2023-02-17T23:40:39.767Z,21.08
2023-02-17T23:43:06.347Z,22.67
2023-02-17T23:45:33.365Z,23.17
2023-02-17T23:48:00.038Z,21.88
2023-02-17T23:50:26.721Z,23.55
2023-02-17T23:52:53.041Z,22.05
2023-02-17T23:55:19.451Z,23.58
2023-02-17T23:57:45.786Z,23.75
